createdAt,value
2019-05-25T04:00:38.688Z,10.63
2019-05-25T04:02:38.666Z,10.81
2019-05-25T04:04:38.650Z,10.89
2019-05-25T04:06:38.614Z,11.04
2019-05-25T04:08:38.594Z,11.12
2019-05-25T04:10:39.072Z,11.19
2019-05-25T04:12:38.569Z,11.27
2019-05-25T04:14:38.546Z,11.44
2019-05-25T04:16:38.549Z,11.52
2019-05-25T04:18:38.482Z,11.68
2019-05-25T04:20:38.500Z,11.80
2019-05-25T04:22:38.488Z,11.77
2019-05-25T04:24:38.468Z,11.94
2019-05-25T04:26:38.449Z,12.06
2019-05-25T04:28:38.384Z,12.15
2019-05-25T04:30:38.362Z,12.28
2019-05-25T04:32:38.361Z,12.37
2019-05-25T04:34:38.311Z,12.58
2019-05-25T04:36:38.304Z,12.65
2019-05-25T04:38:38.282Z,12.75
2019-05-25T04:40:38.254Z,12.86
2019-05-25T04:42:38.279Z,12.94
2019-05-25T04:44:38.208Z,13.22
2019-05-25T04:46:38.188Z,13.30
2019-05-25T04:48:38.165Z,13.46
2019-05-25T04:50:38.142Z,13.67
2019-05-25T04:52:41.114Z,13.81
2019-05-25T04:54:38.105Z,14.07
2019-05-25T04:56:39.826Z,14.58
2019-05-25T04:58:38.054Z,16.35
2019-05-25T05:00:38.094Z,18.37
2019-05-25T05:02:38.004Z,19.18
2019-05-25T05:04:37.977Z,18.38
2019-05-25T05:06:38.032Z,18.68
2019-05-25T05:08:37.967Z,18.08
2019-05-25T05:10:37.919Z,17.42
2019-05-25T05:12:37.947Z,16.91
2019-05-25T05:14:37.875Z,16.64
2019-05-25T05:16:37.868Z,16.36
2019-05-25T05:18:37.842Z,16.28
2019-05-25T05:20:37.806Z,16.24
2019-05-25T05:22:37.822Z,20.78
2019-05-25T05:24:37.783Z,24.51
2019-05-25T05:26:37.744Z,27.87
2019-05-25T05:28:37.768Z,30.53
2019-05-25T05:30:37.759Z,32.29
2019-05-25T05:32:37.671Z,33.73
2019-05-25T05:34:37.697Z,34.73
2019-05-25T05:36:37.671Z,35.51
2019-05-25T05:38:37.632Z,36.00
2019-05-25T05:40:37.645Z,36.27
2019-05-25T05:42:37.602Z,36.39
2019-05-25T05:44:37.559Z,36.68
2019-05-25T05:46:37.541Z,36.95
2019-05-25T05:48:37.498Z,37.01
2019-05-25T05:50:37.503Z,37.20
2019-05-25T05:52:37.466Z,37.14
2019-05-25T05:54:37.450Z,34.01
2019-05-25T05:56:37.441Z,30.44
2019-05-25T05:58:37.419Z,27.85
2019-05-25T06:00:37.392Z,26.19
2019-05-25T06:02:37.369Z,25.46
2019-05-25T06:04:37.331Z,25.31
2019-05-25T06:06:37.355Z,26.21
2019-05-25T06:08:37.362Z,26.89
2019-05-25T06:10:37.268Z,29.19
2019-05-25T06:12:37.253Z,30.72
2019-05-25T06:14:37.238Z,32.68
2019-05-25T06:16:37.209Z,30.81
2019-05-25T06:18:37.208Z,29.76
2019-05-25T06:20:37.161Z,29.22
2019-05-25T06:22:37.136Z,32.19
2019-05-25T06:24:37.147Z,34.21
2019-05-25T06:26:37.089Z,35.41
2019-05-25T06:28:37.078Z,36.39
2019-05-25T06:30:37.062Z,36.57
2019-05-25T06:32:37.043Z,37.23
2019-05-25T06:34:37.032Z,38.09
2019-05-25T06:36:36.999Z,36.40
2019-05-25T06:38:36.993Z,38.36
2019-05-25T06:40:36.977Z,39.30
2019-05-25T06:42:36.944Z,40.95
2019-05-25T06:44:36.898Z,39.78
2019-05-25T06:46:39.709Z,39.30
2019-05-25T06:48:43.892Z,36.95
2019-05-25T06:50:36.832Z,34.36
2019-05-25T06:52:36.823Z,32.31
2019-05-25T06:54:36.790Z,30.35
2019-05-25T06:56:36.787Z,28.76
2019-05-25T06:58:36.743Z,27.71
2019-05-25T07:00:36.723Z,27.07
2019-05-25T07:02:36.728Z,26.21
2019-05-25T07:04:36.704Z,25.99
2019-05-25T07:06:36.677Z,26.09
2019-05-25T07:08:36.650Z,28.67
2019-05-25T07:10:36.616Z,29.19
2019-05-25T07:12:36.608Z,28.02
2019-05-25T07:14:36.582Z,28.04
2019-05-25T07:16:36.557Z,29.04
2019-05-25T07:18:36.545Z,28.48
2019-05-25T07:20:36.513Z,27.33
2019-05-25T07:22:36.484Z,26.59
2019-05-25T07:24:36.492Z,26.13
2019-05-25T07:26:36.447Z,28.08
2019-05-25T07:28:36.441Z,27.08
2019-05-25T07:30:36.424Z,27.68
2019-05-25T07:32:36.396Z,31.37
2019-05-25T07:34:36.356Z,31.24
2019-05-25T07:36:36.348Z,31.17
2019-05-25T07:38:36.331Z,30.10
2019-05-25T07:40:36.296Z,29.31
2019-05-25T07:42:36.291Z,28.74
2019-05-25T07:44:36.263Z,28.70
2019-05-25T07:46:36.237Z,28.05
2019-05-25T07:48:36.210Z,27.35
2019-05-25T07:50:36.211Z,27.48
2019-05-25T07:52:36.175Z,27.12
2019-05-25T07:54:36.151Z,26.80
2019-05-25T07:56:36.131Z,27.33
2019-05-25T07:58:36.124Z,28.30
2019-05-25T08:00:36.085Z,28.56
2019-05-25T08:02:36.060Z,29.66
2019-05-25T08:04:36.041Z,30.63
2019-05-25T08:06:36.037Z,31.06
2019-05-25T08:08:35.994Z,31.14
2019-05-25T08:10:36.009Z,30.83
2019-05-25T08:12:35.944Z,30.00
2019-05-25T08:14:35.937Z,29.53
2019-05-25T08:16:35.927Z,28.86
2019-05-25T08:18:35.883Z,28.30
2019-05-25T08:20:35.903Z,27.92
2019-05-25T08:22:35.839Z,27.59
2019-05-25T08:24:35.821Z,27.20
2019-05-25T08:26:35.807Z,26.36
2019-05-25T08:28:35.779Z,25.43
2019-05-25T08:30:35.768Z,24.53
2019-05-25T08:32:35.731Z,23.92
2019-05-25T08:34:35.729Z,23.50
2019-05-25T08:36:35.708Z,23.10
2019-05-25T08:38:35.664Z,23.13
2019-05-25T08:40:35.667Z,23.36
2019-05-25T08:42:35.644Z,24.06
2019-05-25T08:44:35.601Z,24.77
2019-05-25T08:46:35.583Z,25.87
2019-05-25T08:48:35.572Z,26.33
2019-05-25T08:50:38.616Z,27.35
2019-05-25T08:52:35.507Z,27.52
2019-05-25T08:54:35.495Z,27.37
2019-05-25T08:56:35.491Z,27.21
2019-05-25T08:58:47.981Z,27.10
2019-05-25T09:00:36.440Z,26.60
2019-05-25T09:02:35.405Z,26.58
2019-05-25T09:04:35.402Z,26.21
2019-05-25T09:06:35.357Z,25.75
2019-05-25T09:08:35.352Z,25.47
2019-05-25T09:10:35.337Z,25.08
2019-05-25T09:12:35.296Z,25.04
2019-05-25T09:14:35.287Z,24.86
2019-05-25T09:16:35.260Z,24.58
2019-05-25T09:18:35.238Z,24.55
2019-05-25T09:20:35.553Z,25.04
2019-05-25T09:22:35.255Z,25.26
2019-05-25T09:24:35.170Z,25.77
2019-05-25T09:26:35.166Z,26.28
2019-05-25T09:28:35.122Z,26.26
2019-05-25T09:30:35.101Z,26.38
2019-05-25T09:32:35.104Z,26.83
2019-05-25T09:34:35.062Z,26.90
2019-05-25T09:36:35.033Z,27.40
2019-05-25T09:38:35.029Z,27.55
2019-05-25T09:40:34.989Z,28.05
2019-05-25T09:42:34.968Z,28.62
2019-05-25T09:44:34.958Z,29.13
2019-05-25T09:46:34.932Z,29.50
2019-05-25T09:48:38.039Z,29.79
2019-05-25T09:50:35.135Z,29.57
2019-05-25T09:52:34.860Z,29.49
2019-05-25T09:54:34.837Z,29.26
2019-05-25T09:56:34.826Z,29.45
2019-05-25T09:58:34.804Z,30.02
2019-05-25T10:00:39.758Z,30.55
2019-05-25T10:02:35.755Z,30.12
2019-05-25T10:04:34.748Z,30.40
2019-05-25T10:06:34.740Z,29.88
2019-05-25T10:08:34.686Z,30.08
2019-05-25T10:10:34.674Z,30.25
2019-05-25T10:12:34.656Z,30.30
2019-05-25T10:14:34.623Z,30.25
2019-05-25T10:16:34.599Z,30.21
2019-05-25T10:18:34.589Z,29.95
2019-05-25T10:20:34.556Z,29.23
2019-05-25T10:22:34.551Z,28.75
2019-05-25T10:24:34.520Z,28.10
2019-05-25T10:26:34.499Z,27.89
2019-05-25T10:28:34.483Z,27.35
2019-05-25T10:30:34.459Z,26.48
2019-05-25T10:32:34.429Z,25.87
2019-05-25T10:34:34.418Z,25.77
2019-05-25T10:36:34.389Z,26.15
2019-05-25T10:38:34.377Z,26.71
2019-05-25T10:40:34.365Z,26.99
2019-05-25T10:42:34.323Z,26.48
2019-05-25T10:44:34.321Z,26.38
2019-05-25T10:46:34.277Z,26.65
2019-05-25T10:48:34.277Z,26.60
2019-05-25T10:50:34.254Z,26.40
2019-05-25T10:52:34.216Z,26.23
2019-05-25T10:54:34.196Z,26.48
2019-05-25T10:56:34.177Z,26.85
2019-05-25T10:58:34.154Z,27.36
2019-05-25T11:00:34.131Z,27.86
2019-05-25T11:02:34.117Z,28.37
2019-05-25T11:04:34.102Z,28.79
2019-05-25T11:06:34.976Z,28.96
2019-05-25T11:08:34.059Z,28.93
2019-05-25T11:10:34.037Z,28.81
2019-05-25T11:12:34.011Z,28.69
2019-05-25T11:14:33.973Z,28.79
2019-05-25T11:16:33.965Z,28.33
2019-05-25T11:18:33.965Z,28.72
2019-05-25T11:20:33.917Z,29.12
2019-05-25T11:22:33.887Z,29.38
2019-05-25T11:24:33.873Z,29.38
2019-05-25T11:26:33.848Z,29.45
2019-05-25T11:28:33.828Z,29.41
2019-05-25T11:30:33.818Z,28.76
2019-05-25T11:32:33.781Z,28.79
2019-05-25T11:34:33.784Z,28.32
2019-05-25T11:36:33.734Z,28.70
2019-05-25T11:38:33.711Z,28.98
2019-05-25T11:40:33.711Z,29.63
2019-05-25T11:42:33.666Z,30.00
2019-05-25T11:44:33.652Z,30.24
2019-05-25T11:46:33.637Z,29.51
2019-05-25T11:48:33.602Z,28.56
2019-05-25T11:50:33.581Z,27.96
2019-05-25T11:52:33.575Z,28.64
2019-05-25T11:54:33.541Z,29.24
2019-05-25T11:56:33.531Z,28.78
2019-05-25T11:58:46.607Z,28.56
2019-05-25T12:00:34.486Z,27.95
2019-05-25T12:02:33.451Z,27.36
2019-05-25T12:04:33.450Z,27.05
2019-05-25T12:06:33.408Z,26.90
2019-05-25T12:08:33.409Z,26.85
2019-05-25T12:10:33.375Z,26.84
2019-05-25T12:12:33.347Z,27.55
2019-05-25T12:14:33.335Z,27.85
2019-05-25T12:16:33.364Z,28.70
2019-05-25T12:18:33.296Z,29.36
2019-05-25T12:20:33.259Z,29.73
2019-05-25T12:22:33.240Z,29.97
2019-05-25T12:24:33.225Z,30.00
2019-05-25T12:26:33.191Z,30.23
2019-05-25T12:28:33.181Z,29.98
2019-05-25T12:30:40.724Z,30.02
2019-05-25T12:32:34.132Z,29.97
2019-05-25T12:34:33.108Z,29.72
2019-05-25T12:36:33.110Z,28.79
2019-05-25T12:38:33.070Z,28.02
2019-05-25T12:40:33.048Z,27.74
2019-05-25T12:42:33.106Z,27.82
2019-05-25T12:44:34.454Z,27.82
2019-05-25T12:46:32.987Z,27.82
2019-05-25T12:48:32.955Z,27.83
2019-05-25T12:50:32.932Z,28.02
2019-05-25T12:52:32.926Z,28.20
2019-05-25T12:54:32.898Z,28.38
2019-05-25T12:56:32.875Z,28.60
2019-05-25T12:58:32.879Z,28.78
2019-05-25T13:00:32.826Z,28.97
2019-05-25T13:02:32.802Z,29.08
2019-05-25T13:04:32.788Z,29.01
2019-05-25T13:06:32.758Z,28.88
2019-05-25T13:08:32.737Z,28.93
2019-05-25T13:10:32.748Z,28.82
2019-05-25T13:12:32.695Z,28.91
2019-05-25T13:14:32.683Z,29.08
2019-05-25T13:16:32.663Z,29.31
2019-05-25T13:18:32.628Z,29.51
2019-05-25T13:20:32.609Z,29.27
2019-05-25T13:22:32.600Z,29.19
2019-05-25T13:24:32.570Z,29.07
2019-05-25T13:26:32.625Z,28.94
2019-05-25T13:28:32.517Z,28.67
2019-05-25T13:30:32.497Z,28.70
2019-05-25T13:32:32.510Z,28.41
2019-05-25T13:34:32.458Z,27.44
2019-05-25T13:36:32.451Z,27.08
2019-05-25T13:38:32.428Z,27.33
2019-05-25T13:40:32.396Z,27.86
2019-05-25T13:42:32.385Z,28.25
2019-05-25T13:44:32.354Z,28.66
2019-05-25T13:46:32.321Z,28.12
2019-05-25T13:48:32.319Z,27.73
2019-05-25T13:50:32.283Z,27.40
2019-05-25T13:52:32.270Z,27.18
2019-05-25T13:54:32.253Z,26.95
2019-05-25T13:56:32.213Z,26.75
2019-05-25T13:58:32.197Z,27.00
2019-05-25T14:00:32.182Z,27.74
2019-05-25T14:02:32.154Z,28.47
2019-05-25T14:04:32.147Z,28.74
2019-05-25T14:06:32.121Z,28.85
2019-05-25T14:08:32.084Z,28.37
2019-05-25T14:10:32.069Z,28.30
2019-05-25T14:12:32.051Z,28.27
2019-05-25T14:14:32.023Z,27.92
2019-05-25T14:16:32.022Z,27.39
2019-05-25T14:18:32.009Z,27.05
2019-05-25T14:20:31.970Z,27.33
2019-05-25T14:22:31.937Z,27.39
2019-05-25T14:24:31.919Z,27.39
2019-05-25T14:26:31.895Z,27.14
2019-05-25T14:28:31.891Z,26.53
2019-05-25T14:30:31.843Z,26.48
2019-05-25T14:32:31.825Z,25.93
2019-05-25T14:34:31.814Z,26.37
2019-05-25T14:36:31.779Z,26.74
2019-05-25T14:38:31.760Z,27.08
2019-05-25T14:40:31.751Z,26.70
2019-05-25T14:42:31.739Z,26.84
2019-05-25T14:44:31.709Z,26.96
2019-05-25T14:46:31.674Z,27.14
2019-05-25T14:48:31.697Z,27.37
2019-05-25T14:50:31.627Z,27.58
2019-05-25T14:52:31.617Z,27.89
2019-05-25T14:54:31.587Z,28.17
2019-05-25T14:56:31.565Z,28.49
2019-05-25T14:58:31.606Z,28.59
2019-05-25T15:00:31.520Z,28.57
2019-05-25T15:02:31.512Z,28.59
2019-05-25T15:04:31.491Z,28.49
2019-05-25T15:06:31.457Z,28.45
2019-05-25T15:08:31.434Z,28.15
2019-05-25T15:10:31.428Z,28.15
2019-05-25T15:12:31.395Z,28.05
2019-05-25T15:14:31.365Z,27.87
2019-05-25T15:16:31.358Z,27.45
2019-05-25T15:18:31.326Z,26.92
2019-05-25T15:20:31.318Z,26.95
2019-05-25T15:22:31.969Z,26.92
2019-05-25T15:24:31.262Z,26.65
2019-05-25T15:26:31.249Z,26.68
2019-05-25T15:28:31.214Z,26.81
2019-05-25T15:30:31.195Z,26.97
2019-05-25T15:32:31.184Z,27.12
2019-05-25T15:34:31.150Z,27.35
2019-05-25T15:36:31.137Z,27.36
2019-05-25T15:38:31.123Z,27.35
2019-05-25T15:40:31.099Z,27.32
2019-05-25T15:42:31.064Z,27.36
2019-05-25T15:44:31.048Z,27.37
2019-05-25T15:46:31.279Z,27.18
2019-05-25T15:48:31.139Z,27.00
2019-05-25T15:50:31.094Z,27.11
2019-05-25T15:52:31.006Z,26.73
2019-05-25T15:54:31.013Z,25.85
2019-05-25T15:56:30.966Z,25.66
2019-05-25T15:58:30.924Z,25.28
2019-05-25T16:00:30.909Z,25.06
2019-05-25T16:02:36.550Z,24.74
2019-05-25T16:04:31.848Z,24.58
2019-05-25T16:06:30.814Z,25.22
2019-05-25T16:08:30.800Z,25.58
2019-05-25T16:10:30.778Z,25.96
2019-05-25T16:12:30.740Z,26.09
2019-05-25T16:14:30.745Z,26.31
2019-05-25T16:16:30.706Z,26.45
2019-05-25T16:18:30.677Z,26.68
2019-05-25T16:20:30.676Z,26.83
2019-05-25T16:22:30.638Z,26.89
2019-05-25T16:24:30.670Z,26.96
2019-05-25T16:26:44.940Z,26.97
2019-05-25T16:28:31.574Z,26.88
2019-05-25T16:30:31.603Z,26.81
2019-05-25T16:32:30.541Z,26.68
2019-05-25T16:34:30.525Z,26.45
2019-05-25T16:36:30.549Z,26.38
2019-05-25T16:38:30.470Z,26.13
2019-05-25T16:40:30.525Z,25.93
2019-05-25T16:42:32.018Z,25.80
2019-05-25T16:44:30.405Z,25.62
2019-05-25T16:46:30.429Z,25.46
2019-05-25T16:48:30.374Z,25.25
2019-05-25T16:50:30.331Z,25.13
2019-05-25T16:52:31.388Z,24.89
2019-05-25T16:54:32.396Z,24.70
2019-05-25T16:56:30.568Z,24.51
2019-05-25T16:58:30.245Z,24.47
2019-05-25T17:00:30.253Z,24.29
2019-05-25T17:02:30.215Z,24.14
2019-05-25T17:04:30.194Z,24.10
2019-05-25T17:06:30.161Z,23.86
2019-05-25T17:08:30.163Z,23.71
2019-05-25T17:10:30.175Z,23.61
2019-05-25T17:12:30.115Z,23.47
2019-05-25T17:14:30.069Z,23.27
2019-05-25T17:16:30.058Z,23.27
2019-05-25T17:18:30.046Z,23.09
2019-05-25T17:20:30.030Z,22.73
2019-05-25T17:22:30.000Z,22.55
2019-05-25T17:24:30.004Z,22.45
2019-05-25T17:26:29.968Z,22.30
2019-05-25T17:28:29.930Z,22.18
2019-05-25T17:30:29.896Z,22.20
2019-05-25T17:32:29.871Z,22.15
2019-05-25T17:34:29.867Z,22.18
2019-05-25T17:36:29.838Z,22.18
2019-05-25T17:38:29.828Z,22.15
2019-05-25T17:40:29.783Z,22.14
2019-05-25T17:42:29.773Z,22.07
2019-05-25T17:44:29.761Z,22.07
2019-05-25T17:46:29.715Z,22.10
2019-05-25T17:48:29.727Z,22.00
2019-05-25T17:50:29.715Z,22.11
2019-05-25T17:52:29.660Z,22.00
2019-05-25T17:54:29.635Z,22.04
2019-05-25T17:56:29.622Z,21.89
2019-05-25T17:58:29.607Z,21.88
2019-05-25T18:00:29.576Z,21.77
2019-05-25T18:02:29.559Z,21.66
2019-05-25T18:04:29.534Z,21.57
2019-05-25T18:06:29.499Z,21.57
2019-05-25T18:08:29.487Z,21.45
2019-05-25T18:10:29.472Z,21.42
2019-05-25T18:12:29.495Z,21.36
2019-05-25T18:14:29.433Z,21.21
2019-05-25T18:16:29.409Z,21.17
2019-05-25T18:18:29.407Z,21.06
2019-05-25T18:20:29.347Z,21.00
2019-05-25T18:22:29.340Z,20.93
2019-05-25T18:24:29.295Z,20.95
2019-05-25T18:26:29.352Z,20.87
2019-05-25T18:28:29.268Z,20.90
2019-05-25T18:30:29.333Z,20.78
2019-05-25T18:32:29.217Z,20.81
2019-05-25T18:36:01.759Z,20.80
